sensor_id;sensor_type;location;lat;lon;timestamp;P1;durP1;ratioP1;P2;durP2;ratioP2
59824;SDS011;45703;50.898;6.054;2023-05-16T00:00:23;3.92;;;1.20;;
59824;SDS011;45703;50.898;6.054;2023-05-16T00:02:51;7.72;;;1.48;;
59824;SDS011;45703;50.898;6.054;2023-05-16T00:05:16;4.10;;;1.20;;
59824;SDS011;45703;50.898;6.054;2023-05-16T00:07:43;4.97;;;1.00;;
59824;SDS011;45703;50.898;6.054;2023-05-16T00:10:09;4.50;;;1.02;;
59824;SDS011;45703;50.898;6.054;2023-05-16T00:12:35;5.93;;;1.20;;
59824;SDS011;45703;50.898;6.054;2023-05-16T00:15:03;5.82;;;1.98;;
59824;SDS011;45703;50.898;6.054;2023-05-16T00:17:30;5.03;;;1.20;;
59824;SDS011;45703;50.898;6.054;2023-05-16T00:19:56;5.10;;;1.20;;
59824;SDS011;45703;50.898;6.054;2023-05-16T00:22:24;4.75;;;1.35;;
59824;SDS011;45703;50.898;6.054;2023-05-16T00:24:50;8.52;;;1.42;;
59824;SDS011;45703;50.898;6.054;2023-05-16T00:27:15;5.25;;;1.20;;
59824;SDS011;45703;50.898;6.054;2023-05-16T00:29:40;6.10;;;1.30;;
59824;SDS011;45703;50.898;6.054;2023-05-16T00:32:06;5.20;;;1.30;;
59824;SDS011;45703;50.898;6.054;2023-05-16T00:34:32;6.45;;;1.52;;
59824;SDS011;45703;50.898;6.054;2023-05-16T00:36:58;5.32;;;1.20;;
59824;SDS011;45703;50.898;6.054;2023-05-16T00:39:24;5.75;;;1.55;;
59824;SDS011;45703;50.898;6.054;2023-05-16T00:41:50;6.80;;;1.38;;
59824;SDS011;45703;50.898;6.054;2023-05-16T00:44:15;4.43;;;1.10;;
59824;SDS011;45703;50.898;6.054;2023-05-16T00:46:41;6.43;;;1.50;;
59824;SDS011;45703;50.898;6.054;2023-05-16T00:49:07;6.22;;;1.40;;
59824;SDS011;45703;50.898;6.054;2023-05-16T00:51:33;6.68;;;1.45;;
59824;SDS011;45703;50.898;6.054;2023-05-16T00:53:58;8.38;;;2.45;;
59824;SDS011;45703;50.898;6.054;2023-05-16T00:56:24;6.13;;;1.65;;
59824;SDS011;45703;50.898;6.054;2023-05-16T00:58:49;6.20;;;1.30;;
59824;SDS011;45703;50.898;6.054;2023-05-16T01:01:15;6.90;;;1.98;;
59824;SDS011;45703;50.898;6.054;2023-05-16T01:03:41;7.43;;;2.13;;
59824;SDS011;45703;50.898;6.054;2023-05-16T01:06:09;7.00;;;1.80;;
59824;SDS011;45703;50.898;6.054;2023-05-16T01:08:36;7.68;;;1.60;;
59824;SDS011;45703;50.898;6.054;2023-05-16T01:11:05;7.63;;;1.88;;
59824;SDS011;45703;50.898;6.054;2023-05-16T01:13:40;6.97;;;1.70;;
59824;SDS011;45703;50.898;6.054;2023-05-16T01:16:25;8.00;;;1.83;;
59824;SDS011;45703;50.898;6.054;2023-05-16T01:18:58;10.73;;;2.03;;
59824;SDS011;45703;50.898;6.054;2023-05-16T01:24:33;8.65;;;2.10;;
59824;SDS011;45703;50.898;6.054;2023-05-16T01:27:07;8.52;;;2.20;;
59824;SDS011;45703;50.898;6.054;2023-05-16T01:29:36;9.93;;;2.03;;
59824;SDS011;45703;50.898;6.054;2023-05-16T01:32:01;7.93;;;2.10;;
59824;SDS011;45703;50.898;6.054;2023-05-16T01:34:26;6.40;;;1.83;;
59824;SDS011;45703;50.898;6.054;2023-05-16T01:36:56;8.65;;;1.90;;
59824;SDS011;45703;50.898;6.054;2023-05-16T01:39:40;7.75;;;1.88;;
59824;SDS011;45703;50.898;6.054;2023-05-16T01:42:11;8.15;;;1.90;;
59824;SDS011;45703;50.898;6.054;2023-05-16T01:44:45;9.05;;;2.15;;
59824;SDS011;45703;50.898;6.054;2023-05-16T01:47:34;9.90;;;2.53;;
59824;SDS011;45703;50.898;6.054;2023-05-16T01:50:09;12.38;;;3.03;;
59824;SDS011;45703;50.898;6.054;2023-05-16T01:55:06;10.27;;;2.15;;
59824;SDS011;45703;50.898;6.054;2023-05-16T02:00:02;9.93;;;2.10;;
59824;SDS011;45703;50.898;6.054;2023-05-16T02:02:28;10.20;;;2.15;;
59824;SDS011;45703;50.898;6.054;2023-05-16T02:04:53;10.25;;;2.08;;
59824;SDS011;45703;50.898;6.054;2023-05-16T02:07:18;8.15;;;2.00;;
59824;SDS011;45703;50.898;6.054;2023-05-16T02:09:44;7.93;;;2.20;;
59824;SDS011;45703;50.898;6.054;2023-05-16T02:12:10;10.73;;;2.45;;
59824;SDS011;45703;50.898;6.054;2023-05-16T02:14:35;8.45;;;2.30;;
59824;SDS011;45703;50.898;6.054;2023-05-16T02:17:00;9.45;;;2.20;;
59824;SDS011;45703;50.898;6.054;2023-05-16T02:19:26;13.07;;;2.20;;
59824;SDS011;45703;50.898;6.054;2023-05-16T02:21:51;12.20;;;2.42;;
59824;SDS011;45703;50.898;6.054;2023-05-16T02:24:16;10.10;;;3.13;;
59824;SDS011;45703;50.898;6.054;2023-05-16T02:26:42;7.45;;;2.05;;
59824;SDS011;45703;50.898;6.054;2023-05-16T02:29:08;9.27;;;2.13;;
59824;SDS011;45703;50.898;6.054;2023-05-16T02:31:33;10.95;;;2.85;;
59824;SDS011;45703;50.898;6.054;2023-05-16T02:33:59;9.10;;;1.80;;
59824;SDS011;45703;50.898;6.054;2023-05-16T02:36:25;11.27;;;2.85;;
59824;SDS011;45703;50.898;6.054;2023-05-16T02:38:51;9.73;;;2.08;;
59824;SDS011;45703;50.898;6.054;2023-05-16T02:41:17;12.05;;;2.72;;
59824;SDS011;45703;50.898;6.054;2023-05-16T02:43:43;7.40;;;1.80;;
59824;SDS011;45703;50.898;6.054;2023-05-16T02:46:25;8.30;;;1.90;;
59824;SDS011;45703;50.898;6.054;2023-05-16T02:48:51;8.70;;;2.05;;
59824;SDS011;45703;50.898;6.054;2023-05-16T02:51:22;9.52;;;2.15;;
59824;SDS011;45703;50.898;6.054;2023-05-16T02:53:48;12.20;;;2.92;;
59824;SDS011;45703;50.898;6.054;2023-05-16T02:56:14;9.45;;;2.22;;
59824;SDS011;45703;50.898;6.054;2023-05-16T02:58:40;10.13;;;2.25;;
59824;SDS011;45703;50.898;6.054;2023-05-16T03:01:06;10.93;;;2.33;;
59824;SDS011;45703;50.898;6.054;2023-05-16T03:03:32;10.80;;;2.22;;
59824;SDS011;45703;50.898;6.054;2023-05-16T03:05:59;8.85;;;2.30;;
59824;SDS011;45703;50.898;6.054;2023-05-16T03:08:24;12.52;;;2.70;;
59824;SDS011;45703;50.898;6.054;2023-05-16T03:10:50;6.93;;;1.70;;
59824;SDS011;45703;50.898;6.054;2023-05-16T03:13:15;9.35;;;2.70;;
59824;SDS011;45703;50.898;6.054;2023-05-16T03:15:41;11.10;;;2.40;;
59824;SDS011;45703;50.898;6.054;2023-05-16T03:18:06;10.15;;;2.38;;
59824;SDS011;45703;50.898;6.054;2023-05-16T03:20:32;12.50;;;2.65;;
59824;SDS011;45703;50.898;6.054;2023-05-16T03:22:57;10.32;;;2.40;;
59824;SDS011;45703;50.898;6.054;2023-05-16T03:25:23;6.25;;;1.95;;
59824;SDS011;45703;50.898;6.054;2023-05-16T03:27:48;10.75;;;2.45;;
59824;SDS011;45703;50.898;6.054;2023-05-16T03:30:14;11.32;;;2.35;;
59824;SDS011;45703;50.898;6.054;2023-05-16T03:32:40;11.25;;;2.42;;
59824;SDS011;45703;50.898;6.054;2023-05-16T03:35:05;8.23;;;1.92;;
59824;SDS011;45703;50.898;6.054;2023-05-16T03:37:31;9.77;;;2.45;;
59824;SDS011;45703;50.898;6.054;2023-05-16T03:39:57;9.48;;;2.50;;
59824;SDS011;45703;50.898;6.054;2023-05-16T03:42:22;11.70;;;2.67;;
59824;SDS011;45703;50.898;6.054;2023-05-16T03:44:47;7.88;;;2.00;;
59824;SDS011;45703;50.898;6.054;2023-05-16T03:47:13;12.82;;;2.28;;
59824;SDS011;45703;50.898;6.054;2023-05-16T03:49:38;10.48;;;2.20;;
59824;SDS011;45703;50.898;6.054;2023-05-16T03:52:05;10.65;;;2.13;;
59824;SDS011;45703;50.898;6.054;2023-05-16T03:54:30;10.07;;;2.05;;
59824;SDS011;45703;50.898;6.054;2023-05-16T03:56:56;8.65;;;2.25;;
59824;SDS011;45703;50.898;6.054;2023-05-16T03:59:21;12.07;;;2.90;;
59824;SDS011;45703;50.898;6.054;2023-05-16T04:01:46;13.18;;;2.10;;
59824;SDS011;45703;50.898;6.054;2023-05-16T04:04:13;9.10;;;2.08;;
59824;SDS011;45703;50.898;6.054;2023-05-16T04:06:39;9.27;;;2.10;;
59824;SDS011;45703;50.898;6.054;2023-05-16T04:09:04;8.23;;;1.92;;
59824;SDS011;45703;50.898;6.054;2023-05-16T04:11:32;8.40;;;2.00;;
59824;SDS011;45703;50.898;6.054;2023-05-16T04:13:58;9.60;;;2.30;;
59824;SDS011;45703;50.898;6.054;2023-05-16T04:16:23;8.90;;;2.25;;
59824;SDS011;45703;50.898;6.054;2023-05-16T04:18:49;7.43;;;1.77;;
59824;SDS011;45703;50.898;6.054;2023-05-16T04:21:14;11.70;;;1.98;;
59824;SDS011;45703;50.898;6.054;2023-05-16T04:23:40;14.30;;;2.58;;
59824;SDS011;45703;50.898;6.054;2023-05-16T04:26:05;12.32;;;2.20;;
59824;SDS011;45703;50.898;6.054;2023-05-16T04:28:31;6.65;;;1.95;;
59824;SDS011;45703;50.898;6.054;2023-05-16T04:30:57;10.48;;;2.65;;
59824;SDS011;45703;50.898;6.054;2023-05-16T04:33:22;9.82;;;2.30;;
59824;SDS011;45703;50.898;6.054;2023-05-16T04:35:48;15.45;;;2.40;;
59824;SDS011;45703;50.898;6.054;2023-05-16T04:38:14;12.60;;;2.90;;
59824;SDS011;45703;50.898;6.054;2023-05-16T04:40:39;7.28;;;2.08;;
59824;SDS011;45703;50.898;6.054;2023-05-16T04:43:06;11.27;;;2.15;;
59824;SDS011;45703;50.898;6.054;2023-05-16T04:45:32;9.35;;;2.13;;
59824;SDS011;45703;50.898;6.054;2023-05-16T04:47:57;12.40;;;2.70;;
59824;SDS011;45703;50.898;6.054;2023-05-16T04:50:22;9.35;;;2.05;;
59824;SDS011;45703;50.898;6.054;2023-05-16T04:52:48;8.77;;;2.17;;
59824;SDS011;45703;50.898;6.054;2023-05-16T04:55:13;8.82;;;2.63;;
59824;SDS011;45703;50.898;6.054;2023-05-16T04:57:39;13.20;;;3.05;;
59824;SDS011;45703;50.898;6.054;2023-05-16T05:00:05;7.70;;;1.98;;
59824;SDS011;45703;50.898;6.054;2023-05-16T05:02:37;8.45;;;1.85;;
59824;SDS011;45703;50.898;6.054;2023-05-16T05:05:03;6.80;;;1.60;;
59824;SDS011;45703;50.898;6.054;2023-05-16T05:07:30;10.70;;;2.55;;
59824;SDS011;45703;50.898;6.054;2023-05-16T05:09:56;10.02;;;1.95;;
59824;SDS011;45703;50.898;6.054;2023-05-16T05:12:21;12.75;;;2.92;;
59824;SDS011;45703;50.898;6.054;2023-05-16T05:14:47;12.15;;;2.22;;
59824;SDS011;45703;50.898;6.054;2023-05-16T05:17:12;8.43;;;1.85;;
59824;SDS011;45703;50.898;6.054;2023-05-16T05:19:38;8.85;;;2.40;;
59824;SDS011;45703;50.898;6.054;2023-05-16T05:22:03;10.50;;;2.13;;
59824;SDS011;45703;50.898;6.054;2023-05-16T05:24:28;13.10;;;1.98;;
59824;SDS011;45703;50.898;6.054;2023-05-16T05:26:54;7.85;;;2.20;;
59824;SDS011;45703;50.898;6.054;2023-05-16T05:29:20;10.23;;;2.40;;
59824;SDS011;45703;50.898;6.054;2023-05-16T05:31:54;13.20;;;3.03;;
59824;SDS011;45703;50.898;6.054;2023-05-16T05:34:20;9.43;;;2.08;;
59824;SDS011;45703;50.898;6.054;2023-05-16T05:36:45;8.13;;;2.30;;
59824;SDS011;45703;50.898;6.054;2023-05-16T05:39:10;8.82;;;2.40;;
59824;SDS011;45703;50.898;6.054;2023-05-16T05:41:36;11.90;;;2.28;;
59824;SDS011;45703;50.898;6.054;2023-05-16T05:44:02;10.43;;;2.35;;
59824;SDS011;45703;50.898;6.054;2023-05-16T05:46:27;8.45;;;2.10;;
59824;SDS011;45703;50.898;6.054;2023-05-16T05:48:53;11.77;;;2.42;;
59824;SDS011;45703;50.898;6.054;2023-05-16T05:51:19;8.80;;;2.20;;
59824;SDS011;45703;50.898;6.054;2023-05-16T05:53:44;9.20;;;1.83;;
59824;SDS011;45703;50.898;6.054;2023-05-16T05:56:10;9.93;;;2.35;;
59824;SDS011;45703;50.898;6.054;2023-05-16T05:58:35;12.07;;;2.15;;
59824;SDS011;45703;50.898;6.054;2023-05-16T06:01:03;7.30;;;1.95;;
59824;SDS011;45703;50.898;6.054;2023-05-16T06:03:28;10.50;;;2.13;;
59824;SDS011;45703;50.898;6.054;2023-05-16T06:05:54;13.93;;;2.78;;
59824;SDS011;45703;50.898;6.054;2023-05-16T06:08:19;9.90;;;2.20;;
59824;SDS011;45703;50.898;6.054;2023-05-16T06:10:45;10.15;;;2.90;;
59824;SDS011;45703;50.898;6.054;2023-05-16T06:13:11;9.82;;;1.90;;
59824;SDS011;45703;50.898;6.054;2023-05-16T06:15:37;8.30;;;2.53;;
59824;SDS011;45703;50.898;6.054;2023-05-16T06:18:02;14.38;;;2.45;;
59824;SDS011;45703;50.898;6.054;2023-05-16T06:20:28;11.23;;;2.50;;
59824;SDS011;45703;50.898;6.054;2023-05-16T06:22:53;11.95;;;2.33;;
59824;SDS011;45703;50.898;6.054;2023-05-16T06:25:18;11.10;;;2.58;;
59824;SDS011;45703;50.898;6.054;2023-05-16T06:27:44;8.65;;;2.13;;
59824;SDS011;45703;50.898;6.054;2023-05-16T06:30:09;11.77;;;2.33;;
59824;SDS011;45703;50.898;6.054;2023-05-16T06:32:35;8.15;;;2.17;;
59824;SDS011;45703;50.898;6.054;2023-05-16T06:35:00;11.57;;;2.70;;
59824;SDS011;45703;50.898;6.054;2023-05-16T06:37:26;10.70;;;2.78;;
59824;SDS011;45703;50.898;6.054;2023-05-16T06:39:51;10.57;;;2.47;;
59824;SDS011;45703;50.898;6.054;2023-05-16T06:42:16;8.23;;;2.20;;
59824;SDS011;45703;50.898;6.054;2023-05-16T06:44:43;10.40;;;2.20;;
59824;SDS011;45703;50.898;6.054;2023-05-16T06:47:08;10.20;;;1.92;;
59824;SDS011;45703;50.898;6.054;2023-05-16T06:49:34;10.48;;;2.13;;
59824;SDS011;45703;50.898;6.054;2023-05-16T06:51:59;11.07;;;2.50;;
59824;SDS011;45703;50.898;6.054;2023-05-16T06:54:25;12.35;;;2.90;;
59824;SDS011;45703;50.898;6.054;2023-05-16T06:56:50;10.63;;;2.13;;
59824;SDS011;45703;50.898;6.054;2023-05-16T06:59:15;9.77;;;2.35;;
59824;SDS011;45703;50.898;6.054;2023-05-16T07:01:41;9.27;;;2.13;;
59824;SDS011;45703;50.898;6.054;2023-05-16T07:04:06;9.68;;;2.00;;
59824;SDS011;45703;50.898;6.054;2023-05-16T07:06:32;11.48;;;2.50;;
59824;SDS011;45703;50.898;6.054;2023-05-16T07:08:57;11.25;;;2.40;;
59824;SDS011;45703;50.898;6.054;2023-05-16T07:11:22;8.90;;;2.05;;
59824;SDS011;45703;50.898;6.054;2023-05-16T07:13:48;9.07;;;2.05;;
59824;SDS011;45703;50.898;6.054;2023-05-16T07:16:13;8.27;;;1.92;;
59824;SDS011;45703;50.898;6.054;2023-05-16T07:18:39;7.68;;;1.90;;
59824;SDS011;45703;50.898;6.054;2023-05-16T07:21:04;8.57;;;2.05;;
59824;SDS011;45703;50.898;6.054;2023-05-16T07:23:30;9.95;;;1.90;;
59824;SDS011;45703;50.898;6.054;2023-05-16T07:25:55;10.93;;;2.28;;
59824;SDS011;45703;50.898;6.054;2023-05-16T07:28:20;10.00;;;2.40;;
59824;SDS011;45703;50.898;6.054;2023-05-16T07:30:47;9.55;;;1.85;;
59824;SDS011;45703;50.898;6.054;2023-05-16T07:33:13;9.13;;;2.05;;
59824;SDS011;45703;50.898;6.054;2023-05-16T07:35:38;11.30;;;2.67;;
59824;SDS011;45703;50.898;6.054;2023-05-16T07:38:04;11.02;;;2.00;;
59824;SDS011;45703;50.898;6.054;2023-05-16T07:40:29;12.27;;;2.55;;
59824;SDS011;45703;50.898;6.054;2023-05-16T07:42:55;8.32;;;2.20;;
59824;SDS011;45703;50.898;6.054;2023-05-16T07:45:20;8.82;;;2.00;;
59824;SDS011;45703;50.898;6.054;2023-05-16T07:47:46;8.82;;;2.28;;
59824;SDS011;45703;50.898;6.054;2023-05-16T07:50:11;7.47;;;1.95;;
59824;SDS011;45703;50.898;6.054;2023-05-16T07:52:37;6.72;;;1.55;;
59824;SDS011;45703;50.898;6.054;2023-05-16T07:55:02;8.20;;;1.70;;
59824;SDS011;45703;50.898;6.054;2023-05-16T07:57:28;6.35;;;1.65;;
59824;SDS011;45703;50.898;6.054;2023-05-16T07:59:54;9.07;;;1.70;;
59824;SDS011;45703;50.898;6.054;2023-05-16T08:02:20;8.63;;;1.80;;
59824;SDS011;45703;50.898;6.054;2023-05-16T08:04:48;10.13;;;1.92;;
59824;SDS011;45703;50.898;6.054;2023-05-16T08:07:14;12.88;;;2.03;;
59824;SDS011;45703;50.898;6.054;2023-05-16T08:09:39;8.00;;;1.80;;
59824;SDS011;45703;50.898;6.054;2023-05-16T08:12:05;8.73;;;1.60;;
59824;SDS011;45703;50.898;6.054;2023-05-16T08:14:31;10.40;;;2.10;;
59824;SDS011;45703;50.898;6.054;2023-05-16T08:16:59;10.05;;;2.25;;
59824;SDS011;45703;50.898;6.054;2023-05-16T08:19:25;9.05;;;2.28;;
59824;SDS011;45703;50.898;6.054;2023-05-16T08:21:51;8.15;;;2.17;;
59824;SDS011;45703;50.898;6.054;2023-05-16T08:24:16;10.15;;;1.85;;
59824;SDS011;45703;50.898;6.054;2023-05-16T08:26:42;9.38;;;1.92;;
59824;SDS011;45703;50.898;6.054;2023-05-16T08:29:07;11.00;;;3.13;;
59824;SDS011;45703;50.898;6.054;2023-05-16T08:31:33;8.00;;;2.05;;
59824;SDS011;45703;50.898;6.054;2023-05-16T08:33:58;6.82;;;1.80;;
59824;SDS011;45703;50.898;6.054;2023-05-16T08:36:25;7.68;;;1.92;;
59824;SDS011;45703;50.898;6.054;2023-05-16T08:38:51;9.35;;;1.95;;
59824;SDS011;45703;50.898;6.054;2023-05-16T08:41:16;8.35;;;1.85;;
59824;SDS011;45703;50.898;6.054;2023-05-16T08:43:42;9.57;;;1.92;;
59824;SDS011;45703;50.898;6.054;2023-05-16T08:46:07;9.20;;;2.55;;
59824;SDS011;45703;50.898;6.054;2023-05-16T08:48:33;7.85;;;1.98;;
59824;SDS011;45703;50.898;6.054;2023-05-16T08:51:01;9.05;;;2.10;;
59824;SDS011;45703;50.898;6.054;2023-05-16T08:53:34;6.72;;;1.58;;
59824;SDS011;45703;50.898;6.054;2023-05-16T08:56:09;7.55;;;1.73;;
59824;SDS011;45703;50.898;6.054;2023-05-16T08:58:35;9.88;;;1.58;;
59824;SDS011;45703;50.898;6.054;2023-05-16T09:01:01;7.65;;;1.80;;
59824;SDS011;45703;50.898;6.054;2023-05-16T09:03:30;8.48;;;1.80;;
59824;SDS011;45703;50.898;6.054;2023-05-16T09:05:56;5.47;;;1.80;;
59824;SDS011;45703;50.898;6.054;2023-05-16T09:08:22;6.93;;;1.70;;
59824;SDS011;45703;50.898;6.054;2023-05-16T09:10:48;5.97;;;1.42;;
59824;SDS011;45703;50.898;6.054;2023-05-16T09:13:13;6.25;;;1.20;;
59824;SDS011;45703;50.898;6.054;2023-05-16T09:15:39;6.50;;;1.13;;
59824;SDS011;45703;50.898;6.054;2023-05-16T09:18:04;8.20;;;1.33;;
59824;SDS011;45703;50.898;6.054;2023-05-16T09:20:37;7.65;;;1.30;;
59824;SDS011;45703;50.898;6.054;2023-05-16T09:23:10;8.00;;;1.75;;
59824;SDS011;45703;50.898;6.054;2023-05-16T09:25:36;6.68;;;1.52;;
59824;SDS011;45703;50.898;6.054;2023-05-16T09:28:04;7.75;;;1.58;;
59824;SDS011;45703;50.898;6.054;2023-05-16T09:30:30;7.75;;;1.60;;
59824;SDS011;45703;50.898;6.054;2023-05-16T09:33:01;8.27;;;1.50;;
59824;SDS011;45703;50.898;6.054;2023-05-16T09:35:27;9.63;;;1.80;;
59824;SDS011;45703;50.898;6.054;2023-05-16T09:37:52;8.43;;;1.60;;
59824;SDS011;45703;50.898;6.054;2023-05-16T09:40:21;14.77;;;1.80;;
59824;SDS011;45703;50.898;6.054;2023-05-16T09:42:47;6.60;;;1.60;;
59824;SDS011;45703;50.898;6.054;2023-05-16T09:45:29;7.32;;;1.60;;
59824;SDS011;45703;50.898;6.054;2023-05-16T09:48:07;7.18;;;1.63;;
59824;SDS011;45703;50.898;6.054;2023-05-16T09:50:35;9.05;;;1.52;;
59824;SDS011;45703;50.898;6.054;2023-05-16T09:53:01;6.75;;;1.20;;
59824;SDS011;45703;50.898;6.054;2023-05-16T09:55:27;5.53;;;1.20;;
59824;SDS011;45703;50.898;6.054;2023-05-16T09:57:54;8.80;;;1.30;;
59824;SDS011;45703;50.898;6.054;2023-05-16T10:00:20;7.05;;;1.20;;
59824;SDS011;45703;50.898;6.054;2023-05-16T10:02:45;7.95;;;1.95;;
59824;SDS011;45703;50.898;6.054;2023-05-16T10:05:13;5.65;;;1.35;;
59824;SDS011;45703;50.898;6.054;2023-05-16T10:07:40;8.70;;;1.60;;
59824;SDS011;45703;50.898;6.054;2023-05-16T10:10:07;5.80;;;1.60;;
59824;SDS011;45703;50.898;6.054;2023-05-16T10:12:33;8.20;;;1.85;;
59824;SDS011;45703;50.898;6.054;2023-05-16T10:15:01;9.90;;;1.60;;
59824;SDS011;45703;50.898;6.054;2023-05-16T10:17:28;5.50;;;1.30;;
59824;SDS011;45703;50.898;6.054;2023-05-16T10:19:57;6.33;;;1.20;;
59824;SDS011;45703;50.898;6.054;2023-05-16T10:22:26;5.68;;;1.27;;
59824;SDS011;45703;50.898;6.054;2023-05-16T10:24:57;6.85;;;1.80;;
59824;SDS011;45703;50.898;6.054;2023-05-16T10:27:28;6.82;;;1.85;;
59824;SDS011;45703;50.898;6.054;2023-05-16T10:29:55;9.05;;;1.48;;
59824;SDS011;45703;50.898;6.054;2023-05-16T10:32:22;8.07;;;1.65;;
59824;SDS011;45703;50.898;6.054;2023-05-16T10:34:51;8.07;;;1.65;;
59824;SDS011;45703;50.898;6.054;2023-05-16T10:37:17;5.35;;;1.27;;
59824;SDS011;45703;50.898;6.054;2023-05-16T10:39:42;6.38;;;1.52;;
59824;SDS011;45703;50.898;6.054;2023-05-16T10:42:08;7.93;;;1.63;;
59824;SDS011;45703;50.898;6.054;2023-05-16T10:44:34;6.53;;;1.30;;
59824;SDS011;45703;50.898;6.054;2023-05-16T10:47:03;6.68;;;1.20;;
59824;SDS011;45703;50.898;6.054;2023-05-16T10:49:29;4.82;;;1.20;;
59824;SDS011;45703;50.898;6.054;2023-05-16T10:52:02;5.63;;;1.38;;
59824;SDS011;45703;50.898;6.054;2023-05-16T10:54:41;4.78;;;1.08;;
59824;SDS011;45703;50.898;6.054;2023-05-16T10:57:16;5.32;;;1.20;;
59824;SDS011;45703;50.898;6.054;2023-05-16T10:59:48;10.80;;;1.75;;
59824;SDS011;45703;50.898;6.054;2023-05-16T11:04:58;6.25;;;1.67;;
59824;SDS011;45703;50.898;6.054;2023-05-16T11:07:25;8.10;;;1.60;;
59824;SDS011;45703;50.898;6.054;2023-05-16T11:12:35;3.45;;;0.93;;
59824;SDS011;45703;50.898;6.054;2023-05-16T11:15:17;5.75;;;1.30;;
59824;SDS011;45703;50.898;6.054;2023-05-16T11:17:43;7.57;;;1.20;;
59824;SDS011;45703;50.898;6.054;2023-05-16T11:20:09;5.75;;;1.13;;
59824;SDS011;45703;50.898;6.054;2023-05-16T11:25:15;3.30;;;0.98;;
59824;SDS011;45703;50.898;6.054;2023-05-16T11:27:45;8.82;;;1.42;;
59824;SDS011;45703;50.898;6.054;2023-05-16T11:30:12;5.60;;;1.15;;
59824;SDS011;45703;50.898;6.054;2023-05-16T11:32:41;5.25;;;1.10;;
59824;SDS011;45703;50.898;6.054;2023-05-16T11:35:08;6.35;;;1.13;;
59824;SDS011;45703;50.898;6.054;2023-05-16T11:37:35;7.80;;;1.42;;
59824;SDS011;45703;50.898;6.054;2023-05-16T11:40:02;6.68;;;1.40;;
59824;SDS011;45703;50.898;6.054;2023-05-16T11:42:29;5.90;;;1.40;;
59824;SDS011;45703;50.898;6.054;2023-05-16T11:45:03;8.10;;;1.33;;
59824;SDS011;45703;50.898;6.054;2023-05-16T11:47:31;4.78;;;1.10;;
59824;SDS011;45703;50.898;6.054;2023-05-16T11:49:57;6.00;;;1.45;;
59824;SDS011;45703;50.898;6.054;2023-05-16T11:52:23;5.45;;;1.23;;
59824;SDS011;45703;50.898;6.054;2023-05-16T11:54:48;7.25;;;1.63;;
59824;SDS011;45703;50.898;6.054;2023-05-16T11:57:15;4.00;;;1.23;;
59824;SDS011;45703;50.898;6.054;2023-05-16T11:59:41;5.28;;;1.30;;
59824;SDS011;45703;50.898;6.054;2023-05-16T12:02:06;8.45;;;1.67;;
59824;SDS011;45703;50.898;6.054;2023-05-16T12:04:33;6.45;;;1.40;;
59824;SDS011;45703;50.898;6.054;2023-05-16T12:07:00;8.65;;;1.63;;
59824;SDS011;45703;50.898;6.054;2023-05-16T12:09:25;6.47;;;1.30;;
59824;SDS011;45703;50.898;6.054;2023-05-16T12:11:51;4.55;;;1.27;;
59824;SDS011;45703;50.898;6.054;2023-05-16T12:14:17;5.13;;;1.15;;
59824;SDS011;45703;50.898;6.054;2023-05-16T12:16:43;5.97;;;1.30;;
59824;SDS011;45703;50.898;6.054;2023-05-16T12:19:10;6.72;;;1.15;;
59824;SDS011;45703;50.898;6.054;2023-05-16T12:21:37;5.97;;;1.30;;
59824;SDS011;45703;50.898;6.054;2023-05-16T12:24:02;8.35;;;1.67;;
59824;SDS011;45703;50.898;6.054;2023-05-16T12:26:31;6.97;;;1.60;;
59824;SDS011;45703;50.898;6.054;2023-05-16T12:29:00;6.63;;;1.60;;
59824;SDS011;45703;50.898;6.054;2023-05-16T12:31:29;6.40;;;1.50;;
59824;SDS011;45703;50.898;6.054;2023-05-16T12:33:55;5.75;;;1.50;;
59824;SDS011;45703;50.898;6.054;2023-05-16T12:36:22;4.68;;;1.00;;
59824;SDS011;45703;50.898;6.054;2023-05-16T12:38:48;6.20;;;1.10;;
59824;SDS011;45703;50.898;6.054;2023-05-16T12:41:19;5.85;;;1.00;;
59824;SDS011;45703;50.898;6.054;2023-05-16T12:43:46;5.55;;;1.13;;
59824;SDS011;45703;50.898;6.054;2023-05-16T12:46:12;5.10;;;1.17;;
59824;SDS011;45703;50.898;6.054;2023-05-16T12:48:37;5.70;;;1.27;;
59824;SDS011;45703;50.898;6.054;2023-05-16T12:53:43;6.13;;;1.20;;
59824;SDS011;45703;50.898;6.054;2023-05-16T12:56:10;4.93;;;1.10;;
59824;SDS011;45703;50.898;6.054;2023-05-16T12:58:36;6.50;;;1.30;;
59824;SDS011;45703;50.898;6.054;2023-05-16T13:01:02;5.50;;;1.17;;
59824;SDS011;45703;50.898;6.054;2023-05-16T13:03:28;5.43;;;1.10;;
59824;SDS011;45703;50.898;6.054;2023-05-16T13:05:54;6.45;;;1.30;;
59824;SDS011;45703;50.898;6.054;2023-05-16T13:08:20;4.03;;;0.95;;
59824;SDS011;45703;50.898;6.054;2023-05-16T13:10:45;5.10;;;1.25;;
59824;SDS011;45703;50.898;6.054;2023-05-16T13:13:10;6.88;;;1.00;;
59824;SDS011;45703;50.898;6.054;2023-05-16T13:15:36;4.80;;;0.90;;
59824;SDS011;45703;50.898;6.054;2023-05-16T13:18:02;4.75;;;1.10;;
59824;SDS011;45703;50.898;6.054;2023-05-16T13:20:27;4.57;;;0.98;;
59824;SDS011;45703;50.898;6.054;2023-05-16T13:22:53;6.68;;;1.10;;
59824;SDS011;45703;50.898;6.054;2023-05-16T13:25:19;5.50;;;1.15;;
59824;SDS011;45703;50.898;6.054;2023-05-16T13:27:45;6.60;;;1.17;;
59824;SDS011;45703;50.898;6.054;2023-05-16T13:30:13;6.88;;;1.20;;
59824;SDS011;45703;50.898;6.054;2023-05-16T13:32:39;6.55;;;1.20;;
59824;SDS011;45703;50.898;6.054;2023-05-16T13:35:04;6.20;;;1.05;;
59824;SDS011;45703;50.898;6.054;2023-05-16T13:37:30;9.60;;;1.67;;
59824;SDS011;45703;50.898;6.054;2023-05-16T13:39:55;6.00;;;1.10;;
59824;SDS011;45703;50.898;6.054;2023-05-16T13:42:21;6.38;;;1.65;;
59824;SDS011;45703;50.898;6.054;2023-05-16T13:44:46;6.95;;;1.42;;
59824;SDS011;45703;50.898;6.054;2023-05-16T13:47:12;6.78;;;1.30;;
59824;SDS011;45703;50.898;6.054;2023-05-16T13:49:37;6.55;;;1.33;;
59824;SDS011;45703;50.898;6.054;2023-05-16T13:52:03;5.38;;;1.20;;
59824;SDS011;45703;50.898;6.054;2023-05-16T13:54:30;5.03;;;1.20;;
59824;SDS011;45703;50.898;6.054;2023-05-16T13:56:55;5.80;;;1.10;;
59824;SDS011;45703;50.898;6.054;2023-05-16T13:59:21;4.47;;;0.90;;
59824;SDS011;45703;50.898;6.054;2023-05-16T14:01:47;5.20;;;1.20;;
59824;SDS011;45703;50.898;6.054;2023-05-16T14:04:12;6.00;;;1.35;;
59824;SDS011;45703;50.898;6.054;2023-05-16T14:06:38;5.72;;;1.05;;
59824;SDS011;45703;50.898;6.054;2023-05-16T14:09:03;5.53;;;1.15;;
59824;SDS011;45703;50.898;6.054;2023-05-16T14:11:29;6.20;;;1.30;;
59824;SDS011;45703;50.898;6.054;2023-05-16T14:13:55;5.68;;;1.40;;
59824;SDS011;45703;50.898;6.054;2023-05-16T14:16:21;5.57;;;1.17;;
59824;SDS011;45703;50.898;6.054;2023-05-16T14:18:47;5.75;;;1.13;;
59824;SDS011;45703;50.898;6.054;2023-05-16T14:21:12;5.40;;;1.20;;
59824;SDS011;45703;50.898;6.054;2023-05-16T14:23:38;5.63;;;1.50;;
59824;SDS011;45703;50.898;6.054;2023-05-16T14:26:04;5.82;;;1.40;;
59824;SDS011;45703;50.898;6.054;2023-05-16T14:28:29;7.85;;;1.50;;
59824;SDS011;45703;50.898;6.054;2023-05-16T14:30:56;8.15;;;1.60;;
59824;SDS011;45703;50.898;6.054;2023-05-16T14:33:25;7.38;;;1.48;;
59824;SDS011;45703;50.898;6.054;2023-05-16T14:35:50;7.22;;;1.90;;
59824;SDS011;45703;50.898;6.054;2023-05-16T14:38:17;4.90;;;1.40;;
59824;SDS011;45703;50.898;6.054;2023-05-16T14:40:43;6.82;;;1.70;;
59824;SDS011;45703;50.898;6.054;2023-05-16T14:43:08;7.85;;;1.40;;
59824;SDS011;45703;50.898;6.054;2023-05-16T14:45:34;8.02;;;1.65;;
59824;SDS011;45703;50.898;6.054;2023-05-16T14:48:01;6.65;;;1.55;;
59824;SDS011;45703;50.898;6.054;2023-05-16T14:50:27;5.72;;;1.33;;
59824;SDS011;45703;50.898;6.054;2023-05-16T14:52:52;8.65;;;1.80;;
59824;SDS011;45703;50.898;6.054;2023-05-16T14:55:17;5.82;;;1.63;;
59824;SDS011;45703;50.898;6.054;2023-05-16T14:57:44;7.38;;;1.73;;
59824;SDS011;45703;50.898;6.054;2023-05-16T15:00:09;7.47;;;1.75;;